Time;durP1;ratioP1;P1;durP2;ratioP2;P2;SDS_P1;SDS_P2;PMS_P1;PMS_P2;Temp;Humidity;BMP_temperature;BMP_pressure;BME280_temperature;BME280_humidity;BME280_pressure;Samples;Min_cycle;Max_cycle;Signal;HPM_P1;HPM_P2
2023/09/19 00:00:29;;;;;;;16.00;14.40;;;;;;;21.93;58.37;99625.73;109104;1272;22079;-80
2023/09/19 00:03:31;;;;;;;16.10;14.80;;;;;;;21.93;58.42;99619.94;109167;1272;21997;-78
2023/09/19 00:06:07;;;;;;;18.60;14.10;;;;;;;21.92;58.45;99619.30;109129;1272;21988;-79
2023/09/19 00:08:59;;;;;;;14.80;13.50;;;;;;;21.92;58.53;99625.50;109196;1272;22834;-78
2023/09/19 00:11:34;;;;;;;14.70;13.00;;;;;;;21.91;58.62;99621.15;109451;1268;22716;-79
2023/09/19 00:14:13;;;;;;;14.40;13.10;;;;;;;21.94;58.65;99626.23;110043;1263;23729;-79
2023/09/19 00:16:54;;;;;;;14.00;12.50;;;;;;;21.95;58.64;99636.67;110301;1263;23767;-78
2023/09/19 00:19:36;;;;;;;14.00;12.10;;;;;;;21.97;58.69;99648.05;110274;1263;21985;-79
2023/09/19 00:22:13;;;;;;;13.50;12.20;;;;;;;21.97;58.68;99654.60;110081;1263;24648;-78
2023/09/19 00:24:53;;;;;;;14.40;13.00;;;;;;;21.96;58.64;99656.80;110271;1263;21973;-79
2023/09/19 00:27:51;;;;;;;;;;;;;;;;;;;;;
2023/09/19 00:30:32;;;;;;;15.40;12.40;;;;;;;21.91;58.78;99653.39;110485;1263;21971;-80
2023/09/19 00:33:16;;;;;;;13.80;12.10;;;;;;;21.90;58.74;99654.25;109440;1267;22036;-78
2023/09/19 00:36:05;;;;;;;13.20;11.70;;;;;;;21.87;58.85;99647.54;110004;1267;21981;-79
2023/09/19 00:38:50;;;;;;;11.70;10.50;;;;;;;21.87;58.84;99641.69;110603;1259;22041;-79
2023/09/19 00:41:45;;;;;;;12.30;11.30;;;;;;;21.86;58.84;99643.05;110384;1259;22011;-79
2023/09/19 00:44:24;;;;;;;11.30;10.10;;;;;;;21.86;58.94;99643.95;110038;1264;23594;-79
2023/09/19 00:47:03;;;;;;;11.30;10.10;;;;;;;21.87;58.82;99642.98;109265;1272;22002;-80
2023/09/19 00:49:52;;;;;;;10.90;9.90;;;;;;;21.86;58.86;99641.29;108913;1278;23065;-78
2023/09/19 00:52:23;;;;;;;14.70;9.80;;;;;;;21.87;58.91;99647.17;108856;1277;22996;-78
2023/09/19 00:55:02;;;;;;;11.80;9.40;;;;;;;21.90;58.88;99646.60;108916;1276;21994;-79
2023/09/19 00:57:44;;;;;;;10.00;9.10;;;;;;;21.90;58.80;99646.90;108538;1281;22055;-78
2023/09/19 01:00:21;;;;;;;;;;;;;;;21.89;58.76;99647.36;108409;1287;22726;-78
2023/09/19 01:03:02;;;;;;;13.10;9.80;;;;;;;21.80;59.09;99654.09;108177;1286;21979;-78
2023/09/19 01:05:52;;;;;;;9.80;9.00;;;;;;;21.79;59.04;99655.77;107974;1286;23065;-79
2023/09/19 01:08:31;;;;;;;16.70;9.80;;;;;;;21.78;59.04;99653.34;108519;1281;21991;-79
2023/09/19 01:11:42;;;;;;;13.60;9.50;;;;;;;21.77;59.11;99648.58;108599;1277;22046;-78
2023/09/19 01:14:36;;;;;;;10.30;8.90;;;;;;;21.73;59.10;99649.42;108948;1276;23043;-78
2023/09/19 01:17:48;;;;;;;12.60;8.50;;;;;;;21.70;59.11;99645.46;109057;1274;23708;-79
2023/09/19 01:20:51;;;;;;;9.00;7.90;;;;;;;21.63;59.15;99635.68;108955;1270;23058;-78
2023/09/19 01:23:51;;;;;;;16.00;7.80;;;;;;;21.56;59.39;99631.45;109643;1264;23698;-78
2023/09/19 01:27:14;;;;;;;9.00;7.30;;;;;;;21.54;59.58;99633.23;110358;1264;22016;-78
2023/09/19 01:29:50;;;;;;;11.20;5.60;;;;;;;21.50;59.69;99641.05;110309;1265;21997;-79
2023/09/19 01:32:24;;;;;;;7.30;6.20;;;;;;;21.46;59.72;99645.48;109767;1264;22037;-78
2023/09/19 01:35:04;;;;;;;12.00;5.30;;;;;;;21.40;59.91;99638.41;110100;1264;21973;-78
2023/09/19 01:37:43;;;;;;;6.30;5.30;;;;;;;21.34;59.99;99634.48;110019;1264;22926;-78
2023/09/19 01:40:28;;;;;;;4.90;4.30;;;;;;;21.30;60.19;99626.93;110066;1261;21964;-78
2023/09/19 01:43:18;;;;;;;;;;;;;;;21.25;60.50;99620.55;109652;1269;21955;-78
2023/09/19 01:46:24;;;;;;;6.60;4.60;;;;;;;21.13;60.92;99616.54;109530;1269;22178;-78
2023/09/19 01:49:20;;;;;;;7.20;4.40;;;;;;;21.11;61.09;99620.05;109649;1269;23699;-78
2023/09/19 01:52:09;;;;;;;9.00;4.60;;;;;;;21.10;61.12;99621.52;109708;1269;21996;-78
2023/09/19 01:54:56;;;;;;;9.80;4.40;;;;;;;21.09;61.26;99625.36;109095;1273;22868;-78
2023/09/19 01:58:04;;;;;;;5.40;4.20;;;;;;;21.07;61.51;99630.28;109292;1267;23049;-77
2023/09/19 02:00:53;;;;;;;5.20;4.40;;;;;;;21.04;61.48;99630.20;109423;1268;21977;-78
2023/09/19 02:03:50;;;;;;;8.10;4.70;;;;;;;21.00;61.68;99624.45;109921;1268;23055;-77
2023/09/19 02:06:42;;;;;;;9.00;4.50;;;;;;;21.00;61.87;99622.44;109512;1268;21955;-78
2023/09/19 02:09:39;;;;;;;5.80;4.20;;;;;;;21.04;62.01;99630.25;109907;1268;23032;-78
2023/09/19 02:12:18;;;;;;;7.60;4.30;;;;;;;21.02;61.93;99630.23;109877;1267;23081;-78
2023/09/19 02:14:51;;;;;;;5.60;4.30;;;;;;;20.95;62.07;99628.41;109694;1268;23002;-77
2023/09/19 02:17:25;;;;;;;8.10;3.90;;;;;;;20.98;62.22;99638.83;109408;1268;21980;-78
2023/09/19 02:19:56;;;;;;;6.70;3.80;;;;;;;20.93;62.48;99638.69;110249;1263;24751;-77
2023/09/19 02:22:38;;;;;;;5.70;4.00;;;;;;;20.95;62.69;99640.48;109895;1268;22032;-79
2023/09/19 02:25:15;;;;;;;9.40;4.40;;;;;;;20.91;62.84;99632.13;109844;1269;22424;-77
2023/09/19 02:27:49;;;;;;;7.00;3.90;;;;;;;20.90;63.04;99631.04;109020;1275;22609;-79
2023/09/19 02:30:39;;;;;;;8.40;4.00;;;;;;;20.89;63.17;99629.00;108861;1275;21980;-77
2023/09/19 02:33:15;;;;;;;6.70;4.40;;;;;;;20.86;63.43;99628.37;108948;1272;23606;-79
2023/09/19 02:35:46;;;;;;;7.20;4.40;;;;;;;20.83;63.47;99624.94;108838;1274;23046;-78
2023/09/19 02:38:24;;;;;;;6.70;4.40;;;;;;;20.79;63.57;99621.96;109184;1269;23772;-78
2023/09/19 02:41:08;;;;;;;6.60;4.80;;;;;;;20.76;63.81;99620.87;109357;1269;23759;-78
2023/09/19 02:43:44;;;;;;;7.60;4.00;;;;;;;20.72;63.97;99619.76;109751;1268;22859;-79
2023/09/19 02:46:23;;;;;;;7.50;5.30;;;;;;;20.71;64.14;99620.59;110130;1263;22726;-78
2023/09/19 02:49:00;;;;;;;10.10;4.50;;;;;;;20.69;64.31;99617.91;109661;1266;22008;-79
2023/09/19 02:51:43;;;;;;;5.60;4.20;;;;;;;20.67;64.36;99620.90;109910;1267;21986;-80
2023/09/19 02:54:19;;;;;;;8.50;4.10;;;;;;;20.63;64.40;99623.02;110264;1261;22975;-78
2023/09/19 02:57:01;;;;;;;7.30;3.70;;;;;;;20.59;64.56;99624.77;110365;1261;22718;-79
2023/09/19 02:59:37;;;;;;;5.70;3.80;;;;;;;20.57;64.79;99627.77;110294;1260;21968;-78
2023/09/19 03:02:09;;;;;;;6.20;4.80;;;;;;;20.57;64.87;99632.27;110769;1260;23628;-78
2023/09/19 03:05:04;;;;;;;6.60;4.50;;;;;;;20.53;65.04;99630.14;110886;1260;22018;-79
2023/09/19 03:07:38;;;;;;;50.40;7.10;;;;;;;20.52;65.19;99622.97;109845;1263;22103;-79
2023/09/19 03:10:10;;;;;;;26.90;5.80;;;;;;;20.53;65.27;99628.33;110129;1264;21967;-78
2023/09/19 03:13:01;;;;;;;;;;;;;;;;;;;;;
2023/09/19 03:15:56;;;;;;;7.50;4.40;;;;;;;20.48;65.43;99650.66;110288;1258;21998;-79
2023/09/19 03:18:38;;;;;;;11.10;4.00;;;;;;;20.44;65.44;99653.32;110480;1260;23126;-78
2023/09/19 03:21:30;;;;;;;7.70;4.60;;;;;;;20.42;65.72;99652.52;110412;1260;21969;-80
2023/09/19 03:24:13;;;;;;;6.00;3.80;;;;;;;20.37;65.87;99659.85;110471;1260;21967;-79
2023/09/19 03:26:50;;;;;;;15.70;4.70;;;;;;;20.34;66.01;99659.90;110615;1256;22991;-78
2023/09/19 03:29:25;;;;;;;10.80;4.70;;;;;;;20.31;66.12;99646.20;110873;1255;21978;-78
2023/09/19 03:32:04;;;;;;;16.10;6.20;;;;;;;20.26;66.45;99644.23;110904;1256;22714;-79
2023/09/19 03:34:48;;;;;;;7.30;4.80;;;;;;;20.20;67.06;99640.83;110963;1255;23697;-80
2023/09/19 03:37:34;;;;;;;7.30;4.80;;;;;;;20.13;67.49;99643.80;110924;1255;22023;-79
2023/09/19 03:40:22;;;;;;;11.40;5.10;;;;;;;20.05;67.92;99644.25;110867;1255;21960;-81
2023/09/19 03:43:01;;;;;;;7.70;4.60;;;;;;;20.01;68.39;99643.64;110704;1255;21998;-78
2023/09/19 03:45:41;;;;;;;6.40;4.40;;;;;;;19.97;68.84;99642.04;111040;1255;22416;-79
2023/09/19 03:48:23;;;;;;;8.40;4.50;;;;;;;19.93;69.17;99634.74;111059;1255;23609;-79
2023/09/19 03:51:04;;;;;;;11.20;4.70;;;;;;;19.90;69.51;99634.68;110884;1255;22235;-79
2023/09/19 03:53:49;;;;;;;10.00;5.10;;;;;;;19.88;69.90;99634.34;110622;1260;23697;-79
2023/09/19 03:56:28;;;;;;;8.80;4.80;;;;;;;19.86;70.15;99638.38;110824;1260;21948;-78
2023/09/19 03:59:04;;;;;;;10.60;5.40;;;;;;;19.82;70.24;99636.05;110567;1260;22471;-79
2023/09/19 04:01:46;;;;;;;7.90;5.20;;;;;;;19.78;70.55;99637.00;110471;1260;22992;-78
2023/09/19 04:04:19;;;;;;;11.30;6.30;;;;;;;19.74;70.80;99639.77;110340;1260;23370;-79
2023/09/19 04:06:56;;;;;;;13.50;6.40;;;;;;;19.64;71.01;99634.58;110022;1254;23039;-78
2023/09/19 04:09:34;;;;;;;10.30;5.90;;;;;;;19.67;71.31;99648.46;110149;1259;23724;-79
2023/09/19 04:12:16;;;;;;;10.10;5.40;;;;;;;19.65;71.56;99646.73;110102;1261;22428;-78
2023/09/19 04:14:49;;;;;;;11.00;5.90;;;;;;;19.63;71.83;99647.20;110323;1256;21992;-78
2023/09/19 04:17:34;;;;;;;8.90;5.90;;;;;;;19.61;71.97;99651.45;109818;1267;21990;-78
2023/09/19 04:20:15;;;;;;;8.60;5.30;;;;;;;19.62;72.27;99651.39;109438;1267;23716;-77
2023/09/19 04:22:47;;;;;;;13.30;5.90;;;;;;;19.62;72.31;99648.94;109950;1266;22051;-79
2023/09/19 04:25:22;;;;;;;11.50;6.00;;;;;;;19.60;72.38;99646.94;109739;1258;21965;-78
2023/09/19 04:28:06;;;;;;;12.00;6.10;;;;;;;19.57;72.51;99647.04;110320;1261;22007;-77
2023/09/19 04:30:41;;;;;;;7.90;5.70;;;;;;;19.54;72.65;99647.46;109441;1265;23666;-78
2023/09/19 04:33:22;;;;;;;8.90;5.90;;;;;;;19.54;72.89;99648.56;109067;1274;21982;-78
2023/09/19 04:35:55;;;;;;;10.00;5.60;;;;;;;19.52;72.87;99649.29;109375;1269;23704;-78
2023/09/19 04:38:34;;;;;;;7.10;5.40;;;;;;;19.50;72.97;99650.28;109434;1269;21970;-77
2023/09/19 04:41:06;;;;;;;10.80;5.80;;;;;;;19.50;73.25;99648.15;109727;1262;22073;-79
2023/09/19 04:43:37;;;;;;;8.60;5.40;;;;;;;19.49;73.22;99648.08;109208;1273;22053;-77
2023/09/19 04:46:09;;;;;;;11.80;5.10;;;;;;;19.47;73.34;99647.92;109240;1271;22018;-77
2023/09/19 04:48:46;;;;;;;13.80;6.20;;;;;;;19.47;73.47;99648.45;109288;1266;21998;-77
2023/09/19 04:51:36;;;;;;;7.00;5.40;;;;;;;19.43;73.54;99644.75;109366;1272;21976;-78
2023/09/19 04:54:15;;;;;;;6.80;5.40;;;;;;;19.40;73.64;99649.71;109312;1271;21977;-78
2023/09/19 04:56:59;;;;;;;10.50;5.80;;;;;;;19.41;73.81;99650.22;109342;1271;21986;-77
2023/09/19 04:59:41;;;;;;;9.90;6.60;;;;;;;19.40;73.97;99646.92;109623;1268;22558;-76
2023/09/19 05:02:15;;;;;;;8.10;5.80;;;;;;;19.41;74.04;99642.66;110288;1261;22105;-79
2023/09/19 05:04:55;;;;;;;10.20;6.30;;;;;;;19.41;74.11;99642.29;110531;1261;22459;-77
2023/09/19 05:07:37;;;;;;;9.70;6.80;;;;;;;19.38;74.16;99637.75;110080;1266;22442;-78
2023/09/19 05:10:28;;;;;;;;;;;;;;;;;;;;;
2023/09/19 05:13:02;;;;;;;7.90;6.30;;;;;;;19.39;74.27;99640.29;110453;1260;21973;-77
2023/09/19 05:15:37;;;;;;;10.00;6.90;;;;;;;19.36;74.36;99638.27;110620;1260;23730;-77
2023/09/19 05:18:13;;;;;;;9.80;7.70;;;;;;;19.38;74.55;99636.02;110520;1260;21962;-77
2023/09/19 05:20:52;;;;;;;10.40;8.20;;;;;;;19.38;74.48;99631.70;110596;1260;21963;-78
2023/09/19 05:23:37;;;;;;;10.30;7.20;;;;;;;19.38;74.65;99630.55;109873;1259;22067;-78
2023/09/19 05:26:21;;;;;;;11.10;7.50;;;;;;;19.35;74.57;99631.97;109854;1266;22434;-78
2023/09/19 05:29:04;;;;;;;8.00;7.10;;;;;;;19.35;74.64;99634.44;109967;1262;21969;-78
2023/09/19 05:31:40;;;;;;;11.60;8.60;;;;;;;19.36;74.60;99628.70;109978;1266;23823;-77
2023/09/19 05:34:19;;;;;;;9.60;8.50;;;;;;;19.32;74.69;99626.24;109685;1266;22271;-78
2023/09/19 05:36:58;;;;;;;10.30;8.00;;;;;;;19.32;74.82;99623.27;110024;1266;21991;-77
2023/09/19 05:39:37;;;;;;;9.30;7.80;;;;;;;19.32;74.92;99623.98;110052;1266;21971;-77
2023/09/19 05:42:08;;;;;;;11.40;7.60;;;;;;;19.32;74.96;99624.63;110111;1261;23586;-77
2023/09/19 05:44:43;;;;;;;9.50;7.20;;;;;;;19.31;74.93;99628.27;109540;1268;23592;-77
2023/09/19 05:47:16;;;;;;;12.80;7.40;;;;;;;19.28;75.02;99624.97;109561;1269;23037;-77
2023/09/19 05:49:47;;;;;;;10.90;7.70;;;;;;;19.29;75.15;99632.68;109781;1268;22743;-77
2023/09/19 05:52:22;;;;;;;11.00;8.00;;;;;;;19.29;75.18;99634.08;109410;1269;21969;-77
2023/09/19 05:55:05;;;;;;;12.30;10.80;;;;;;;19.29;75.25;99635.17;109842;1269;21984;-77
2023/09/19 05:57:39;;;;;;;13.90;8.10;;;;;;;19.30;75.27;99641.39;109862;1269;21983;-77
2023/09/19 06:00:17;;;;;;;8.20;6.20;;;;;;;19.33;75.34;99649.61;109891;1268;21973;-78
2023/09/19 06:03:00;;;;;;;8.00;6.10;;;;;;;19.34;75.50;99659.96;109389;1268;22018;-77
2023/09/19 06:05:32;;;;;;;9.80;6.40;;;;;;;19.38;75.48;99664.59;109954;1268;22008;-77
2023/09/19 06:08:07;;;;;;;8.00;5.60;;;;;;;19.39;75.38;99665.71;109866;1260;21973;-77
2023/09/19 06:11:04;;;;;;;7.20;5.30;;;;;;;19.38;75.33;99670.33;110050;1260;23149;-77
2023/09/19 06:13:50;;;;;;;6.50;5.10;;;;;;;19.41;75.66;99673.48;110576;1260;21964;-77
2023/09/19 06:16:32;;;;;;;6.00;4.90;;;;;;;19.46;75.70;99679.24;109771;1267;24297;-77
2023/09/19 06:19:08;;;;;;;7.20;4.20;;;;;;;19.55;75.85;99677.77;109913;1267;23692;-77
2023/09/19 06:21:59;;;;;;;9.30;4.70;;;;;;;19.63;75.88;99681.25;109806;1268;23739;-77
2023/09/19 06:24:40;;;;;;;7.50;4.20;;;;;;;19.74;75.88;99687.25;109821;1268;22611;-76
2023/09/19 06:27:23;;;;;;;10.80;4.40;;;;;;;19.84;75.64;99692.17;109867;1262;23756;-76
2023/09/19 06:29:53;;;;;;;10.00;5.20;;;;;;;19.92;75.26;99691.36;109181;1273;22005;-76
2023/09/19 06:32:28;;;;;;;6.80;5.50;;;;;;;19.98;75.08;99685.31;109257;1273;23701;-76
2023/09/19 06:35:01;;;;;;;9.70;4.20;;;;;;;20.10;74.88;99690.85;109619;1268;24125;-76
2023/09/19 06:37:38;;;;;;;9.40;4.40;;;;;;;20.22;74.72;99702.89;109471;1271;21982;-77
2023/09/19 06:40:14;;;;;;;9.10;4.00;;;;;;;20.32;74.30;99708.83;109875;1265;21986;-76
2023/09/19 06:42:50;;;;;;;6.10;3.80;;;;;;;20.40;73.88;99709.93;109626;1269;22920;-74
2023/09/19 06:45:21;;;;;;;7.10;3.60;;;;;;;20.39;73.63;99700.80;109396;1269;23747;-75
2023/09/19 06:47:55;;;;;;;4.10;3.50;;;;;;;20.59;73.34;99723.79;109685;1265;22074;-76
2023/09/19 06:50:33;;;;;;;9.70;4.30;;;;;;;20.67;73.07;99725.55;109418;1265;23024;-76
2023/09/19 06:53:06;;;;;;;4.60;3.70;;;;;;;20.77;72.77;99723.98;109508;1270;21993;-77
2023/09/19 06:55:39;;;;;;;5.60;3.50;;;;;;;20.86;72.22;99722.81;109017;1274;22006;-76
2023/09/19 06:58:11;;;;;;;7.80;4.30;;;;;;;20.90;71.61;99722.29;109131;1274;23650;-78
2023/09/19 07:00:46;;;;;;;4.40;3.60;;;;;;;20.91;71.17;99721.48;109429;1269;21988;-77
2023/09/19 07:03:25;;;;;;;7.20;3.60;;;;;;;20.93;70.91;99722.20;110097;1267;21964;-77
2023/09/19 07:05:58;;;;;;;4.90;3.50;;;;;;;20.98;71.02;99728.26;109770;1266;21996;-78
2023/09/19 07:08:39;;;;;;;7.70;4.10;;;;;;;21.17;71.62;99733.60;110231;1260;21978;-77
2023/09/19 07:11:14;;;;;;;9.60;5.10;;;;;;;21.43;71.22;99738.26;110353;1265;21972;-78
2023/09/19 07:13:44;;;;;;;9.70;6.30;;;;;;;21.58;70.03;99738.10;110444;1260;21962;-79
2023/09/19 07:16:29;;;;;;;6.90;4.90;;;;;;;21.64;68.88;99741.84;110568;1259;21969;-78
2023/09/19 07:19:01;;;;;;;7.50;4.10;;;;;;;21.64;68.21;99744.98;110586;1260;23029;-78
2023/09/19 07:21:35;;;;;;;8.20;3.60;;;;;;;21.64;67.89;99743.59;110569;1260;23592;-77
2023/09/19 07:24:06;;;;;;;;;;;;;;;21.62;67.38;99742.56;110720;1260;24361;-78
2023/09/19 07:26:43;;;;;;;4.60;3.80;;;;;;;21.52;67.42;99748.27;110577;1259;22515;-78
2023/09/19 07:29:39;;;;;;;6.70;4.30;;;;;;;21.47;67.48;99745.89;110766;1254;22816;-78
2023/09/19 07:32:24;;;;;;;;;;;;;;;21.61;67.75;99762.44;110897;1255;23089;-77
2023/09/19 07:34:55;;;;;;;8.20;4.30;;;;;;;21.67;67.70;99768.69;111076;1254;23023;-79
2023/09/19 07:37:33;;;;;;;7.40;4.50;;;;;;;21.80;67.66;99771.67;110969;1255;24181;-78
2023/09/19 07:40:10;;;;;;;6.60;4.60;;;;;;;22.06;67.60;99767.60;110915;1255;22000;-78
2023/09/19 07:42:40;;;;;;;6.30;4.40;;;;;;;22.24;66.51;99766.80;110604;1260;22613;-78
2023/09/19 07:45:37;;;;;;;9.00;4.50;;;;;;;22.39;66.04;99769.28;110644;1260;21975;-79
2023/09/19 07:48:47;;;;;;;;;;;;;;;;;;;;;
2023/09/19 07:52:05;;;;;;;9.50;4.40;;;;;;;22.41;64.46;99773.84;110509;1260;23667;-80
2023/09/19 07:54:44;;;;;;;5.90;4.20;;;;;;;22.39;63.98;99773.86;110596;1259;21955;-79
2023/09/19 07:57:29;;;;;;;6.20;4.60;;;;;;;22.32;63.60;99771.70;110478;1260;23042;-80
2023/09/19 08:00:00;;;;;;;7.40;4.70;;;;;;;22.25;63.69;99775.09;110598;1255;22680;-78
2023/09/19 08:02:41;;;;;;;7.60;4.80;;;;;;;22.23;63.85;99782.88;111017;1250;23752;-78
2023/09/19 08:05:26;;;;;;;6.70;4.70;;;;;;;22.20;63.77;99783.80;110878;1255;21962;-78
2023/09/19 08:08:01;;;;;;;43.70;7.20;;;;;;;22.18;63.71;99784.20;111078;1255;21972;-76
2023/09/19 08:10:39;;;;;;;6.40;4.60;;;;;;;22.19;63.95;99783.25;111133;1254;21955;-74
2023/09/19 08:13:14;;;;;;;9.40;4.10;;;;;;;22.24;63.93;99783.13;110883;1254;21950;-80
2023/09/19 08:15:50;;;;;;;6.50;4.60;;;;;;;22.24;63.46;99779.07;111332;1254;21957;-80
2023/09/19 08:18:23;;;;;;;9.50;4.80;;;;;;;22.20;63.28;99775.73;110693;1262;21986;-79
2023/09/19 08:21:00;;;;;;;8.60;4.80;;;;;;;22.17;63.23;99778.41;110616;1261;21966;-78
2023/09/19 08:23:57;;;;;;;8.60;4.50;;;;;;;22.16;63.24;99777.83;110588;1250;22035;-77
2023/09/19 08:26:33;;;;;;;5.30;4.50;;;;;;;22.15;63.20;99780.11;110532;1262;21959;-79
2023/09/19 08:29:30;;;;;;;9.00;7.50;;;;;;;22.18;63.33;99778.13;110438;1261;24110;-79
2023/09/19 08:32:04;;;;;;;8.10;4.40;;;;;;;22.27;63.36;99782.48;110454;1261;21967;-79
2023/09/19 08:34:38;;;;;;;6.80;4.70;;;;;;;22.31;62.62;99780.17;110525;1261;23140;-77
2023/09/19 08:37:10;;;;;;;6.80;4.70;;;;;;;22.27;62.26;99778.81;105727;1261;6406295;-77
2023/09/19 08:39:40;;;;;;;6.80;5.40;;;;;;;22.35;62.29;99779.95;109418;1268;24289;-78
2023/09/19 08:42:12;;;;;;;6.40;3.60;;;;;;;22.41;62.19;99783.79;110056;1268;21968;-78
2023/09/19 08:44:48;;;;;;;6.60;4.70;;;;;;;22.47;61.87;99793.56;109795;1267;21986;-77
2023/09/19 08:47:35;;;;;;;6.80;5.60;;;;;;;22.47;61.45;99795.48;109961;1268;22024;-79
2023/09/19 08:50:25;;;;;;;7.80;4.50;;;;;;;22.45;61.34;99800.45;109277;1272;21973;-79
2023/09/19 08:53:01;;;;;;;5.20;4.70;;;;;;;22.44;61.29;99806.45;108739;1278;22071;-80
2023/09/19 08:55:33;;;;;;;7.40;4.30;;;;;;;22.40;61.07;99818.61;109070;1273;21975;-79
2023/09/19 08:58:10;;;;;;;6.00;4.70;;;;;;;22.33;60.90;99823.23;109570;1268;21958;-80
2023/09/19 09:00:49;;;;;;;6.30;5.10;;;;;;;22.24;60.80;99826.23;109403;1271;23603;-77
2023/09/19 09:03:42;;;;;;;;;;;;;;;;;;;;;
2023/09/19 09:06:53;;;;;;;6.60;4.60;;;;;;;22.06;61.11;99823.96;109381;1271;21976;-78
2023/09/19 09:10:40;;;;;;;7.20;4.10;;;;;;;22.00;61.21;99822.61;110429;1261;23693;-78
2023/09/19 09:13:41;;;;;;;5.80;4.00;;;;;;;21.92;61.10;99812.48;110514;1261;22731;-78
2023/09/19 09:17:04;;;;;;;5.60;3.40;;;;;;;21.95;61.23;99828.16;110650;1261;23745;-80
2023/09/19 09:20:41;;;;;;;7.90;5.10;;;;;;;21.92;61.48;99829.20;111217;1254;22038;-81
2023/09/19 09:23:32;;;;;;;5.90;3.80;;;;;;;21.91;61.34;99833.48;111512;1254;21976;-79
2023/09/19 09:26:42;;;;;;;5.20;3.70;;;;;;;21.88;61.32;99830.65;110580;1263;23704;-81
2023/09/19 09:30:07;;;;;;;6.20;3.60;;;;;;;21.93;61.41;99840.40;110891;1262;21939;-81
2023/09/19 09:33:22;;;;;;;7.60;2.90;;;;;;;21.97;61.48;99843.58;110673;1264;23602;-80
2023/09/19 09:36:19;;;;;;;5.60;2.80;;;;;;;21.97;61.13;99853.53;110233;1270;23719;-79
2023/09/19 09:39:15;;;;;;;4.80;2.30;;;;;;;21.95;60.76;99852.84;109678;1267;23695;-80
2023/09/19 09:42:09;;;;;;;4.00;2.10;;;;;;;21.91;60.43;99860.96;109493;1270;22961;-78
2023/09/19 09:45:37;;;;;;;8.40;2.40;;;;;;;21.83;60.10;99857.10;109705;1272;22003;-79
2023/09/19 09:48:45;;;;;;;7.10;2.70;;;;;;;21.88;59.88;99873.00;109620;1267;22453;-80
2023/09/19 09:51:31;;;;;;;7.30;2.70;;;;;;;21.92;59.66;99875.59;109754;1271;23809;-79
2023/09/19 09:54:27;;;;;;;6.20;2.30;;;;;;;21.97;59.43;99880.05;109620;1271;23052;-80
2023/09/19 09:57:16;;;;;;;6.20;2.50;;;;;;;22.03;59.31;99880.42;109583;1268;23701;-79
2023/09/19 10:00:23;;;;;;;5.70;3.20;;;;;;;22.05;59.35;99885.17;109131;1273;21976;-78
2023/09/19 10:03:49;;;;;;;5.10;2.90;;;;;;;22.06;59.27;99890.41;109939;1268;22016;-80
2023/09/19 10:06:47;;;;;;;6.20;2.90;;;;;;;22.02;59.05;99885.86;109700;1273;23042;-80
2023/09/19 10:10:29;;;;;;;6.10;3.30;;;;;;;21.91;58.94;99882.56;109690;1269;22020;-79
2023/09/19 10:13:35;;;;;;;4.70;2.70;;;;;;;21.81;59.29;99892.19;109353;1273;23628;-80
2023/09/19 10:16:46;;;;;;;5.50;2.70;;;;;;;21.81;59.54;99898.73;109407;1273;23025;-80
2023/09/19 10:23:45;;;;;;;6.20;3.00;;;;;;;21.80;59.86;99904.86;109133;1279;21962;-80
2023/09/19 10:26:43;;;;;;;4.10;2.70;;;;;;;21.88;59.72;99907.65;108920;1281;21995;-80
2023/09/19 10:29:33;;;;;;;5.50;2.40;;;;;;;21.91;59.05;99910.02;108964;1271;22050;-79
2023/09/19 10:32:11;;;;;;;5.40;2.70;;;;;;;21.92;58.85;99910.71;108861;1281;22362;-78
2023/09/19 10:34:49;;;;;;;9.10;2.60;;;;;;;21.95;58.67;99911.50;108559;1281;23745;-78
2023/09/19 10:37:36;;;;;;;5.00;2.50;;;;;;;21.96;58.32;99910.98;108731;1279;22544;-79
2023/09/19 10:40:26;;;;;;;4.80;2.30;;;;;;;21.94;58.35;99913.98;108770;1279;21982;-78
2023/09/19 10:43:14;;;;;;;6.30;3.10;;;;;;;21.94;58.35;99914.20;108933;1274;23763;-79
2023/09/19 10:46:15;;;;;;;4.80;2.70;;;;;;;22.02;58.60;99921.27;109769;1269;21977;-78
2023/09/19 10:49:11;;;;;;;4.20;2.90;;;;;;;22.14;58.23;99920.66;109449;1270;21979;-78
2023/09/19 10:52:05;;;;;;;6.00;2.70;;;;;;;22.27;58.12;99923.59;109489;1270;22070;-79
2023/09/19 10:54:53;;;;;;;5.00;3.00;;;;;;;22.67;58.69;99929.73;109930;1265;21967;-78
2023/09/19 10:57:34;;;;;;;4.30;2.70;;;;;;;23.25;57.60;99933.17;109569;1270;22056;-79
2023/09/19 11:00:23;;;;;;;4.50;1.90;;;;;;;23.63;54.95;99939.83;110003;1263;21967;-80
2023/09/19 11:03:44;;;;;;;5.50;2.30;;;;;;;23.68;52.88;99941.58;110567;1262;21974;-78
2023/09/19 11:06:42;;;;;;;3.80;2.20;;;;;;;23.57;52.22;99942.86;110521;1262;21980;-78
2023/09/19 11:09:21;;;;;;;4.00;2.10;;;;;;;23.49;52.00;99951.64;110264;1262;22747;-78
2023/09/19 11:12:13;;;;;;;;;;;;;;;;;;;;;
2023/09/19 11:15:14;;;;;;;6.00;2.30;;;;;;;23.44;51.85;99953.19;110446;1255;21982;-78
2023/09/19 11:18:45;;;;;;;6.90;2.00;;;;;;;23.47;51.48;99950.66;110948;1255;23697;-78
2023/09/19 11:21:44;;;;;;;;;;;;;;;;;;;;;
2023/09/19 11:25:54;;;;;;;4.60;2.20;;;;;;;23.19;51.15;99948.20;111428;1255;21981;-80
2023/09/19 11:29:27;;;;;;;4.90;2.20;;;;;;;22.96;51.35;99950.34;111034;1255;23657;-78
2023/09/19 11:32:09;;;;;;;10.90;2.10;;;;;;;22.90;51.30;99948.46;111097;1254;23710;-79
2023/09/19 11:34:50;;;;;;;5.10;1.90;;;;;;;22.91;51.26;99949.75;111075;1256;22716;-78
2023/09/19 11:37:43;;;;;;;3.70;1.80;;;;;;;22.96;51.29;99949.30;110680;1257;23021;-78
2023/09/19 11:41:39;;;;;;;;;;;;;;;;;;;;;
2023/09/19 11:44:37;;;;;;;2.60;1.90;;;;;;;22.94;50.72;99951.45;111038;1259;21991;-80
2023/09/19 11:47:22;;;;;;;5.10;1.30;;;;;;;22.91;50.77;99949.80;110495;1259;22022;-78
2023/09/19 11:50:11;;;;;;;3.80;1.80;;;;;;;22.87;50.80;99955.70;110793;1259;23146;-78
2023/09/19 11:52:46;;;;;;;6.70;1.80;;;;;;;22.85;50.74;99955.15;110809;1259;24410;-78
2023/09/19 11:55:34;;;;;;;4.80;2.00;;;;;;;22.86;50.48;99955.73;110611;1260;22248;-79
2023/09/19 11:58:18;;;;;;;2.60;1.50;;;;;;;22.88;50.24;99955.16;110989;1259;21972;-78
2023/09/19 12:01:07;;;;;;;3.30;1.90;;;;;;;22.96;50.19;99957.45;110555;1259;21959;-78
2023/09/19 12:04:04;;;;;;;2.60;1.90;;;;;;;23.00;49.72;99964.16;110309;1262;23065;-78
2023/09/19 12:06:44;;;;;;;3.80;1.50;;;;;;;23.05;49.43;99962.69;109726;1268;21999;-78
2023/09/19 12:09:24;;;;;;;2.70;1.80;;;;;;;23.13;49.38;99956.95;109765;1268;23058;-79
2023/09/19 12:12:08;;;;;;;4.90;2.40;;;;;;;23.20;49.43;99949.88;109669;1268;22018;-78
2023/09/19 12:14:51;;;;;;;7.30;2.70;;;;;;;23.27;49.21;99945.06;108967;1274;21977;-78
2023/09/19 12:17:24;;;;;;;5.60;1.90;;;;;;;23.35;49.13;99945.61;109018;1274;22070;-77
2023/09/19 12:19:58;;;;;;;7.00;2.40;;;;;;;23.42;48.83;99949.00;108993;1274;23783;-78
2023/09/19 12:22:49;;;;;;;4.00;1.90;;;;;;;23.44;48.38;99949.34;108919;1272;21988;-78
2023/09/19 12:25:47;;;;;;;6.70;2.30;;;;;;;23.47;48.21;99951.16;109271;1272;21979;-78
2023/09/19 12:28:21;;;;;;;5.80;1.90;;;;;;;23.44;47.99;99950.93;109246;1272;23644;-78
2023/09/19 12:31:19;;;;;;;2.60;1.80;;;;;;;23.47;47.82;99949.86;109386;1267;23045;-78
2023/09/19 12:34:34;;;;;;;5.50;1.90;;;;;;;23.46;47.30;99951.65;110490;1261;22078;-79
2023/09/19 12:37:52;;;;;;;3.30;1.70;;;;;;;23.35;46.85;99955.49;110382;1261;24046;-78
2023/09/19 12:40:42;;;;;;;4.20;1.40;;;;;;;23.30;46.17;99954.60;110292;1261;23740;-80
2023/09/19 12:43:32;;;;;;;4.60;1.90;;;;;;;23.28;45.75;99951.45;110437;1261;21949;-78
2023/09/19 12:46:26;;;;;;;3.40;1.60;;;;;;;23.22;45.38;99954.10;110390;1261;22983;-79
2023/09/19 12:49:21;;;;;;;2.50;1.30;;;;;;;23.15;45.09;99955.31;110598;1261;21964;-79
2023/09/19 12:52:13;;;;;;;5.00;1.80;;;;;;;23.12;45.16;99956.17;110567;1261;22168;-79
2023/09/19 12:55:42;;;;;;;;;;;;;;;;;;;;;
2023/09/19 12:59:11;;;;;;;6.20;1.70;;;;;;;23.02;45.27;99969.68;108869;1275;23611;-79
2023/09/19 13:02:06;;;;;;;4.10;1.60;;;;;;;23.04;45.54;99965.46;108496;1277;23854;-77
2023/09/19 13:05:04;;;;;;;5.20;2.00;;;;;;;23.06;45.53;99958.15;108509;1281;22044;-79
2023/09/19 13:07:57;;;;;;;5.60;1.80;;;;;;;23.06;45.36;99953.94;108336;1286;21995;-80